sensor_id;sensor_type;location;lat;lon;timestamp;temperature;humidity
7970;DHT22;4030;52.362;9.206;2023-07-29T00:01:59;22.20;90.80
7970;DHT22;4030;52.362;9.206;2023-07-29T00:04:25;22.20;90.90
7970;DHT22;4030;52.362;9.206;2023-07-29T00:06:51;22.20;90.90
7970;DHT22;4030;52.362;9.206;2023-07-29T00:09:16;22.20;91.00
7970;DHT22;4030;52.362;9.206;2023-07-29T00:11:42;22.10;90.90
7970;DHT22;4030;52.362;9.206;2023-07-29T00:14:08;22.10;91.00
7970;DHT22;4030;52.362;9.206;2023-07-29T00:16:33;22.10;91.00
7970;DHT22;4030;52.362;9.206;2023-07-29T00:18:59;22.00;91.00
7970;DHT22;4030;52.362;9.206;2023-07-29T00:21:25;22.10;91.10
7970;DHT22;4030;52.362;9.206;2023-07-29T00:23:50;22.00;91.10
7970;DHT22;4030;52.362;9.206;2023-07-29T00:26:16;22.00;91.10
7970;DHT22;4030;52.362;9.206;2023-07-29T00:28:42;22.00;91.10
7970;DHT22;4030;52.362;9.206;2023-07-29T00:31:08;22.00;91.60
7970;DHT22;4030;52.362;9.206;2023-07-29T00:33:34;21.90;91.20
7970;DHT22;4030;52.362;9.206;2023-07-29T00:35:59;21.90;91.20
7970;DHT22;4030;52.362;9.206;2023-07-29T00:38:28;21.90;91.20
7970;DHT22;4030;52.362;9.206;2023-07-29T00:40:54;21.90;91.30
7970;DHT22;4030;52.362;9.206;2023-07-29T00:43:20;21.90;91.30
7970;DHT22;4030;52.362;9.206;2023-07-29T00:45:46;21.80;91.30
7970;DHT22;4030;52.362;9.206;2023-07-29T00:48:13;21.80;91.30
7970;DHT22;4030;52.362;9.206;2023-07-29T00:50:39;21.80;91.30
7970;DHT22;4030;52.362;9.206;2023-07-29T00:53:05;21.80;91.40
7970;DHT22;4030;52.362;9.206;2023-07-29T00:55:31;21.80;91.40
7970;DHT22;4030;52.362;9.206;2023-07-29T00:57:57;21.80;91.40
7970;DHT22;4030;52.362;9.206;2023-07-29T01:00:23;21.70;91.50
7970;DHT22;4030;52.362;9.206;2023-07-29T01:02:49;21.70;91.50
7970;DHT22;4030;52.362;9.206;2023-07-29T01:05:16;21.70;91.50
7970;DHT22;4030;52.362;9.206;2023-07-29T01:07:58;21.70;91.50
7970;DHT22;4030;52.362;9.206;2023-07-29T01:13:40;21.70;91.60
7970;DHT22;4030;52.362;9.206;2023-07-29T01:16:41;21.70;91.60
7970;DHT22;4030;52.362;9.206;2023-07-29T01:22:00;21.70;91.70
7970;DHT22;4030;52.362;9.206;2023-07-29T01:24:29;21.70;91.70
7970;DHT22;4030;52.362;9.206;2023-07-29T01:26:54;21.70;91.80
7970;DHT22;4030;52.362;9.206;2023-07-29T01:29:20;21.60;91.70
7970;DHT22;4030;52.362;9.206;2023-07-29T01:31:47;21.60;91.80
7970;DHT22;4030;52.362;9.206;2023-07-29T01:34:23;21.60;91.80
7970;DHT22;4030;52.362;9.206;2023-07-29T01:36:54;21.60;91.80
7970;DHT22;4030;52.362;9.206;2023-07-29T01:39:24;21.60;91.80
7970;DHT22;4030;52.362;9.206;2023-07-29T01:41:51;21.60;91.90
7970;DHT22;4030;52.362;9.206;2023-07-29T01:44:18;21.60;91.90
7970;DHT22;4030;52.362;9.206;2023-07-29T01:46:44;21.60;91.90
7970;DHT22;4030;52.362;9.206;2023-07-29T01:49:10;21.60;91.90
7970;DHT22;4030;52.362;9.206;2023-07-29T01:51:36;21.60;91.90
7970;DHT22;4030;52.362;9.206;2023-07-29T01:54:02;21.60;92.00
7970;DHT22;4030;52.362;9.206;2023-07-29T01:56:28;21.60;92.00
7970;DHT22;4030;52.362;9.206;2023-07-29T01:58:53;21.60;92.00
7970;DHT22;4030;52.362;9.206;2023-07-29T02:01:19;21.60;92.00
7970;DHT22;4030;52.362;9.206;2023-07-29T02:03:45;21.60;92.00
7970;DHT22;4030;52.362;9.206;2023-07-29T02:06:10;21.60;92.00
7970;DHT22;4030;52.362;9.206;2023-07-29T02:08:36;21.60;92.00
7970;DHT22;4030;52.362;9.206;2023-07-29T02:11:02;21.60;92.10
7970;DHT22;4030;52.362;9.206;2023-07-29T02:13:28;21.60;92.10
7970;DHT22;4030;52.362;9.206;2023-07-29T02:15:54;21.60;92.10
7970;DHT22;4030;52.362;9.206;2023-07-29T02:18:19;21.60;92.10
7970;DHT22;4030;52.362;9.206;2023-07-29T02:20:45;21.60;92.20
7970;DHT22;4030;52.362;9.206;2023-07-29T02:23:15;21.60;92.20
7970;DHT22;4030;52.362;9.206;2023-07-29T02:25:42;21.60;92.20
7970;DHT22;4030;52.362;9.206;2023-07-29T02:28:08;21.60;92.20
7970;DHT22;4030;52.362;9.206;2023-07-29T02:30:33;21.60;92.30
7970;DHT22;4030;52.362;9.206;2023-07-29T02:32:59;21.50;92.20
7970;DHT22;4030;52.362;9.206;2023-07-29T02:35:27;21.50;92.20
7970;DHT22;4030;52.362;9.206;2023-07-29T02:37:53;21.50;92.30
7970;DHT22;4030;52.362;9.206;2023-07-29T02:40:18;21.50;92.30
7970;DHT22;4030;52.362;9.206;2023-07-29T02:42:46;21.50;92.30
7970;DHT22;4030;52.362;9.206;2023-07-29T02:45:12;21.50;92.30
7970;DHT22;4030;52.362;9.206;2023-07-29T02:47:38;21.50;92.40
7970;DHT22;4030;52.362;9.206;2023-07-29T02:50:03;21.50;92.40
7970;DHT22;4030;52.362;9.206;2023-07-29T02:52:30;21.50;92.40
7970;DHT22;4030;52.362;9.206;2023-07-29T02:54:55;21.50;92.40
7970;DHT22;4030;52.362;9.206;2023-07-29T02:57:21;21.50;92.50
7970;DHT22;4030;52.362;9.206;2023-07-29T02:59:47;21.40;92.50
7970;DHT22;4030;52.362;9.206;2023-07-29T03:02:12;21.50;92.60
7970;DHT22;4030;52.362;9.206;2023-07-29T03:04:38;21.40;92.60
7970;DHT22;4030;52.362;9.206;2023-07-29T03:07:04;21.40;92.60
7970;DHT22;4030;52.362;9.206;2023-07-29T03:09:29;21.40;92.60
7970;DHT22;4030;52.362;9.206;2023-07-29T03:11:55;21.40;92.70
7970;DHT22;4030;52.362;9.206;2023-07-29T03:14:22;21.40;92.70
7970;DHT22;4030;52.362;9.206;2023-07-29T03:16:47;21.40;92.70
7970;DHT22;4030;52.362;9.206;2023-07-29T03:19:14;21.40;92.80
7970;DHT22;4030;52.362;9.206;2023-07-29T03:21:40;21.40;92.80
7970;DHT22;4030;52.362;9.206;2023-07-29T03:24:06;21.40;92.80
7970;DHT22;4030;52.362;9.206;2023-07-29T03:26:32;21.40;92.90
7970;DHT22;4030;52.362;9.206;2023-07-29T03:28:58;21.40;92.90
7970;DHT22;4030;52.362;9.206;2023-07-29T03:31:24;21.30;92.90
7970;DHT22;4030;52.362;9.206;2023-07-29T03:33:49;21.40;93.00
7970;DHT22;4030;52.362;9.206;2023-07-29T03:36:15;21.40;93.00
7970;DHT22;4030;52.362;9.206;2023-07-29T03:38:41;21.40;93.00
7970;DHT22;4030;52.362;9.206;2023-07-29T03:41:08;21.40;93.00
7970;DHT22;4030;52.362;9.206;2023-07-29T03:43:34;21.40;93.00
7970;DHT22;4030;52.362;9.206;2023-07-29T03:46:00;21.40;93.10
7970;DHT22;4030;52.362;9.206;2023-07-29T03:48:26;21.30;93.10
7970;DHT22;4030;52.362;9.206;2023-07-29T03:50:52;21.40;93.10
7970;DHT22;4030;52.362;9.206;2023-07-29T03:53:17;21.30;93.10
7970;DHT22;4030;52.362;9.206;2023-07-29T03:55:43;21.30;93.10
7970;DHT22;4030;52.362;9.206;2023-07-29T03:58:09;21.40;93.20
7970;DHT22;4030;52.362;9.206;2023-07-29T04:00:35;21.30;93.20
7970;DHT22;4030;52.362;9.206;2023-07-29T04:03:00;21.30;93.10
7970;DHT22;4030;52.362;9.206;2023-07-29T04:05:26;21.30;93.10
7970;DHT22;4030;52.362;9.206;2023-07-29T04:07:52;21.30;93.10
7970;DHT22;4030;52.362;9.206;2023-07-29T04:10:19;21.40;93.20
7970;DHT22;4030;52.362;9.206;2023-07-29T04:12:45;21.30;93.20
7970;DHT22;4030;52.362;9.206;2023-07-29T04:15:10;21.30;93.20
7970;DHT22;4030;52.362;9.206;2023-07-29T04:17:36;21.30;93.10
7970;DHT22;4030;52.362;9.206;2023-07-29T04:20:02;21.30;93.10
7970;DHT22;4030;52.362;9.206;2023-07-29T04:22:28;21.40;93.20
7970;DHT22;4030;52.362;9.206;2023-07-29T04:24:54;21.30;93.10
7970;DHT22;4030;52.362;9.206;2023-07-29T04:27:19;21.40;93.20
7970;DHT22;4030;52.362;9.206;2023-07-29T04:29:45;21.40;93.20
7970;DHT22;4030;52.362;9.206;2023-07-29T04:32:11;21.40;93.20
7970;DHT22;4030;52.362;9.206;2023-07-29T04:34:36;21.40;93.20
7970;DHT22;4030;52.362;9.206;2023-07-29T04:37:02;21.40;93.20
7970;DHT22;4030;52.362;9.206;2023-07-29T04:39:28;21.40;93.20
7970;DHT22;4030;52.362;9.206;2023-07-29T04:41:53;21.40;93.20
7970;DHT22;4030;52.362;9.206;2023-07-29T04:44:19;21.40;93.20
7970;DHT22;4030;52.362;9.206;2023-07-29T04:46:45;21.40;93.20
7970;DHT22;4030;52.362;9.206;2023-07-29T04:49:11;21.40;93.10
7970;DHT22;4030;52.362;9.206;2023-07-29T04:51:37;21.40;93.10
7970;DHT22;4030;52.362;9.206;2023-07-29T04:54:02;21.40;93.10
7970;DHT22;4030;52.362;9.206;2023-07-29T04:56:28;21.40;93.10
7970;DHT22;4030;52.362;9.206;2023-07-29T04:58:54;21.50;93.10
7970;DHT22;4030;52.362;9.206;2023-07-29T05:01:20;21.50;93.10
7970;DHT22;4030;52.362;9.206;2023-07-29T05:03:45;21.50;93.10
7970;DHT22;4030;52.362;9.206;2023-07-29T05:06:11;21.50;93.10
7970;DHT22;4030;52.362;9.206;2023-07-29T05:08:37;21.60;93.10
7970;DHT22;4030;52.362;9.206;2023-07-29T05:11:02;21.60;93.10
7970;DHT22;4030;52.362;9.206;2023-07-29T05:13:28;21.60;93.10
7970;DHT22;4030;52.362;9.206;2023-07-29T05:15:54;21.60;93.10
7970;DHT22;4030;52.362;9.206;2023-07-29T05:18:20;21.60;93.10
7970;DHT22;4030;52.362;9.206;2023-07-29T05:20:47;21.60;93.10
7970;DHT22;4030;52.362;9.206;2023-07-29T05:23:13;21.70;93.20
7970;DHT22;4030;52.362;9.206;2023-07-29T05:25:38;21.70;93.20
7970;DHT22;4030;52.362;9.206;2023-07-29T05:28:04;21.70;93.20
7970;DHT22;4030;52.362;9.206;2023-07-29T05:30:32;21.80;93.20
7970;DHT22;4030;52.362;9.206;2023-07-29T05:32:59;21.80;93.20
7970;DHT22;4030;52.362;9.206;2023-07-29T05:35:25;21.80;93.20
7970;DHT22;4030;52.362;9.206;2023-07-29T05:37:51;21.80;93.20
7970;DHT22;4030;52.362;9.206;2023-07-29T05:40:16;21.80;93.30
7970;DHT22;4030;52.362;9.206;2023-07-29T05:42:42;21.90;93.30
7970;DHT22;4030;52.362;9.206;2023-07-29T05:45:09;21.90;93.30
7970;DHT22;4030;52.362;9.206;2023-07-29T05:47:35;21.90;93.40
7970;DHT22;4030;52.362;9.206;2023-07-29T05:50:01;21.90;93.40
7970;DHT22;4030;52.362;9.206;2023-07-29T05:52:30;21.90;93.40
7970;DHT22;4030;52.362;9.206;2023-07-29T05:54:56;21.90;93.40
7970;DHT22;4030;52.362;9.206;2023-07-29T05:57:22;21.90;93.40
7970;DHT22;4030;52.362;9.206;2023-07-29T05:59:47;21.90;93.40
7970;DHT22;4030;52.362;9.206;2023-07-29T06:02:13;22.00;93.50
7970;DHT22;4030;52.362;9.206;2023-07-29T06:04:39;22.00;93.50
7970;DHT22;4030;52.362;9.206;2023-07-29T06:07:05;22.00;93.50
7970;DHT22;4030;52.362;9.206;2023-07-29T06:09:31;22.00;93.50
7970;DHT22;4030;52.362;9.206;2023-07-29T06:11:57;22.00;93.60
7970;DHT22;4030;52.362;9.206;2023-07-29T06:14:22;22.10;93.60
7970;DHT22;4030;52.362;9.206;2023-07-29T06:16:48;22.10;93.70
7970;DHT22;4030;52.362;9.206;2023-07-29T06:19:13;22.00;93.70
7970;DHT22;4030;52.362;9.206;2023-07-29T06:21:39;22.10;93.60
7970;DHT22;4030;52.362;9.206;2023-07-29T06:24:05;22.10;93.70
7970;DHT22;4030;52.362;9.206;2023-07-29T06:26:31;22.10;93.70
7970;DHT22;4030;52.362;9.206;2023-07-29T06:28:56;22.10;93.70
7970;DHT22;4030;52.362;9.206;2023-07-29T06:31:22;22.20;93.80
7970;DHT22;4030;52.362;9.206;2023-07-29T06:33:48;22.20;93.70
7970;DHT22;4030;52.362;9.206;2023-07-29T06:36:13;22.20;93.70
7970;DHT22;4030;52.362;9.206;2023-07-29T06:38:39;22.20;93.70
7970;DHT22;4030;52.362;9.206;2023-07-29T06:41:06;22.20;93.70
7970;DHT22;4030;52.362;9.206;2023-07-29T06:43:32;22.20;93.70
7970;DHT22;4030;52.362;9.206;2023-07-29T06:45:57;22.20;93.80
7970;DHT22;4030;52.362;9.206;2023-07-29T06:48:23;22.20;93.80
7970;DHT22;4030;52.362;9.206;2023-07-29T06:50:49;22.20;93.80
7970;DHT22;4030;52.362;9.206;2023-07-29T06:53:18;22.20;93.90
7970;DHT22;4030;52.362;9.206;2023-07-29T06:55:44;22.20;94.30
7970;DHT22;4030;52.362;9.206;2023-07-29T06:58:10;22.20;93.90
7970;DHT22;4030;52.362;9.206;2023-07-29T07:00:36;22.20;93.90
7970;DHT22;4030;52.362;9.206;2023-07-29T07:03:01;22.30;93.90
7970;DHT22;4030;52.362;9.206;2023-07-29T07:05:27;22.30;93.90
7970;DHT22;4030;52.362;9.206;2023-07-29T07:07:53;22.30;93.90
7970;DHT22;4030;52.362;9.206;2023-07-29T07:10:19;22.20;93.90
7970;DHT22;4030;52.362;9.206;2023-07-29T07:12:45;22.30;94.00
7970;DHT22;4030;52.362;9.206;2023-07-29T07:15:10;22.30;94.00
7970;DHT22;4030;52.362;9.206;2023-07-29T07:17:36;22.30;94.00
7970;DHT22;4030;52.362;9.206;2023-07-29T07:20:02;22.40;94.00
7970;DHT22;4030;52.362;9.206;2023-07-29T07:22:28;22.40;93.90
7970;DHT22;4030;52.362;9.206;2023-07-29T07:24:54;22.50;93.90
7970;DHT22;4030;52.362;9.206;2023-07-29T07:27:20;22.60;93.80
7970;DHT22;4030;52.362;9.206;2023-07-29T07:29:45;22.60;93.80
7970;DHT22;4030;52.362;9.206;2023-07-29T07:32:11;22.70;93.70
7970;DHT22;4030;52.362;9.206;2023-07-29T07:34:37;22.80;93.60
7970;DHT22;4030;52.362;9.206;2023-07-29T07:37:03;22.90;93.60
7970;DHT22;4030;52.362;9.206;2023-07-29T07:39:29;22.90;93.50
7970;DHT22;4030;52.362;9.206;2023-07-29T07:41:56;23.00;93.50
7970;DHT22;4030;52.362;9.206;2023-07-29T07:44:22;23.00;93.50
7970;DHT22;4030;52.362;9.206;2023-07-29T07:46:47;23.00;93.50
7970;DHT22;4030;52.362;9.206;2023-07-29T07:49:14;23.10;93.60
7970;DHT22;4030;52.362;9.206;2023-07-29T07:51:39;23.10;93.70
7970;DHT22;4030;52.362;9.206;2023-07-29T07:54:05;23.10;93.70
7970;DHT22;4030;52.362;9.206;2023-07-29T07:56:31;23.10;93.60
7970;DHT22;4030;52.362;9.206;2023-07-29T07:58:56;23.10;93.70
7970;DHT22;4030;52.362;9.206;2023-07-29T08:01:22;23.20;93.70
7970;DHT22;4030;52.362;9.206;2023-07-29T08:03:48;23.10;93.70
7970;DHT22;4030;52.362;9.206;2023-07-29T08:06:13;23.10;93.80
7970;DHT22;4030;52.362;9.206;2023-07-29T08:08:39;23.20;93.80
7970;DHT22;4030;52.362;9.206;2023-07-29T08:11:05;23.20;93.80
7970;DHT22;4030;52.362;9.206;2023-07-29T08:13:31;23.20;93.80
7970;DHT22;4030;52.362;9.206;2023-07-29T08:15:56;23.20;93.80
7970;DHT22;4030;52.362;9.206;2023-07-29T08:18:22;23.20;93.80
7970;DHT22;4030;52.362;9.206;2023-07-29T08:20:55;23.30;93.80
7970;DHT22;4030;52.362;9.206;2023-07-29T08:23:27;23.30;93.80
7970;DHT22;4030;52.362;9.206;2023-07-29T08:25:54;23.30;93.70
7970;DHT22;4030;52.362;9.206;2023-07-29T08:28:22;23.40;93.70
7970;DHT22;4030;52.362;9.206;2023-07-29T08:30:48;23.40;93.70
7970;DHT22;4030;52.362;9.206;2023-07-29T08:33:15;23.50;93.60
7970;DHT22;4030;52.362;9.206;2023-07-29T08:35:41;23.60;93.50
7970;DHT22;4030;52.362;9.206;2023-07-29T08:38:06;23.70;93.50
7970;DHT22;4030;52.362;9.206;2023-07-29T08:40:34;23.80;93.60
7970;DHT22;4030;52.362;9.206;2023-07-29T08:43:04;23.90;93.60
7970;DHT22;4030;52.362;9.206;2023-07-29T08:45:34;24.00;93.50
7970;DHT22;4030;52.362;9.206;2023-07-29T08:48:02;24.20;93.40
7970;DHT22;4030;52.362;9.206;2023-07-29T08:50:33;24.30;93.30
7970;DHT22;4030;52.362;9.206;2023-07-29T08:53:00;24.30;93.40
7970;DHT22;4030;52.362;9.206;2023-07-29T08:55:29;24.20;93.40
7970;DHT22;4030;52.362;9.206;2023-07-29T08:57:57;24.20;93.80
7970;DHT22;4030;52.362;9.206;2023-07-29T09:00:25;24.20;93.40
7970;DHT22;4030;52.362;9.206;2023-07-29T09:02:51;24.20;93.40
7970;DHT22;4030;52.362;9.206;2023-07-29T09:05:17;24.20;93.20
7970;DHT22;4030;52.362;9.206;2023-07-29T09:07:44;24.40;93.10
7970;DHT22;4030;52.362;9.206;2023-07-29T09:10:10;24.40;92.90
7970;DHT22;4030;52.362;9.206;2023-07-29T09:12:39;24.60;92.70
7970;DHT22;4030;52.362;9.206;2023-07-29T09:15:05;24.80;92.50
7970;DHT22;4030;52.362;9.206;2023-07-29T09:17:33;24.90;92.30
7970;DHT22;4030;52.362;9.206;2023-07-29T09:19:59;25.00;92.10
7970;DHT22;4030;52.362;9.206;2023-07-29T09:22:26;25.10;91.80
7970;DHT22;4030;52.362;9.206;2023-07-29T09:24:53;25.30;91.60
7970;DHT22;4030;52.362;9.206;2023-07-29T09:27:24;25.50;91.20
7970;DHT22;4030;52.362;9.206;2023-07-29T09:29:52;25.70;90.80
7970;DHT22;4030;52.362;9.206;2023-07-29T09:32:20;26.00;90.50
7970;DHT22;4030;52.362;9.206;2023-07-29T09:34:47;26.20;90.10
7970;DHT22;4030;52.362;9.206;2023-07-29T09:37:23;26.50;89.80
7970;DHT22;4030;52.362;9.206;2023-07-29T09:39:49;26.50;89.30
7970;DHT22;4030;52.362;9.206;2023-07-29T09:42:19;26.50;88.60
7970;DHT22;4030;52.362;9.206;2023-07-29T09:44:46;26.50;87.80
7970;DHT22;4030;52.362;9.206;2023-07-29T09:47:21;26.60;87.30
7970;DHT22;4030;52.362;9.206;2023-07-29T09:49:51;26.70;86.80
7970;DHT22;4030;52.362;9.206;2023-07-29T09:52:19;26.90;86.30
7970;DHT22;4030;52.362;9.206;2023-07-29T09:54:46;27.00;85.90
7970;DHT22;4030;52.362;9.206;2023-07-29T09:57:17;27.20;85.70
7970;DHT22;4030;52.362;9.206;2023-07-29T09:59:53;27.20;85.40
7970;DHT22;4030;52.362;9.206;2023-07-29T10:02:20;27.30;85.50
7970;DHT22;4030;52.362;9.206;2023-07-29T10:04:46;27.40;85.30
7970;DHT22;4030;52.362;9.206;2023-07-29T10:07:12;27.50;85.50
7970;DHT22;4030;52.362;9.206;2023-07-29T10:09:39;27.60;85.20
7970;DHT22;4030;52.362;9.206;2023-07-29T10:12:06;27.80;84.70
7970;DHT22;4030;52.362;9.206;2023-07-29T10:14:33;28.00;84.00
7970;DHT22;4030;52.362;9.206;2023-07-29T10:17:00;28.20;83.60
7970;DHT22;4030;52.362;9.206;2023-07-29T10:19:26;28.40;83.20
7970;DHT22;4030;52.362;9.206;2023-07-29T10:21:52;28.50;82.90
7970;DHT22;4030;52.362;9.206;2023-07-29T10:24:25;28.70;82.30
7970;DHT22;4030;52.362;9.206;2023-07-29T10:26:59;28.90;82.10
7970;DHT22;4030;52.362;9.206;2023-07-29T10:29:30;29.00;81.90
7970;DHT22;4030;52.362;9.206;2023-07-29T10:32:01;29.10;81.50
7970;DHT22;4030;52.362;9.206;2023-07-29T10:34:29;29.10;81.00
7970;DHT22;4030;52.362;9.206;2023-07-29T10:36:56;29.30;80.50
7970;DHT22;4030;52.362;9.206;2023-07-29T10:39:24;29.30;80.00
7970;DHT22;4030;52.362;9.206;2023-07-29T10:42:00;29.40;79.30
7970;DHT22;4030;52.362;9.206;2023-07-29T10:44:56;29.30;78.50
7970;DHT22;4030;52.362;9.206;2023-07-29T10:47:27;29.40;77.50
7970;DHT22;4030;52.362;9.206;2023-07-29T10:49:56;29.60;76.80
7970;DHT22;4030;52.362;9.206;2023-07-29T10:55:01;29.80;75.40
7970;DHT22;4030;52.362;9.206;2023-07-29T10:57:32;30.00;74.70
7970;DHT22;4030;52.362;9.206;2023-07-29T11:00:04;30.20;73.70
7970;DHT22;4030;52.362;9.206;2023-07-29T11:02:36;30.40;73.00
7970;DHT22;4030;52.362;9.206;2023-07-29T11:05:07;30.40;72.60
7970;DHT22;4030;52.362;9.206;2023-07-29T11:07:44;30.60;72.10
7970;DHT22;4030;52.362;9.206;2023-07-29T11:10:11;30.60;71.50
7970;DHT22;4030;52.362;9.206;2023-07-29T11:12:44;30.60;71.10
7970;DHT22;4030;52.362;9.206;2023-07-29T11:15:24;30.70;70.60
7970;DHT22;4030;52.362;9.206;2023-07-29T11:18:01;30.80;69.60
7970;DHT22;4030;52.362;9.206;2023-07-29T11:20:29;30.90;69.00
7970;DHT22;4030;52.362;9.206;2023-07-29T11:22:57;31.10;68.20
7970;DHT22;4030;52.362;9.206;2023-07-29T11:25:24;31.20;67.30
7970;DHT22;4030;52.362;9.206;2023-07-29T11:27:53;31.20;66.80
7970;DHT22;4030;52.362;9.206;2023-07-29T11:30:21;31.20;66.10
7970;DHT22;4030;52.362;9.206;2023-07-29T11:32:48;31.30;65.50
7970;DHT22;4030;52.362;9.206;2023-07-29T11:35:18;31.40;64.70
7970;DHT22;4030;52.362;9.206;2023-07-29T11:37:46;31.20;61.10
7970;DHT22;4030;52.362;9.206;2023-07-29T11:40:20;31.10;59.50
7970;DHT22;4030;52.362;9.206;2023-07-29T11:42:48;30.90;57.30
7970;DHT22;4030;52.362;9.206;2023-07-29T11:45:16;30.60;55.50
7970;DHT22;4030;52.362;9.206;2023-07-29T11:47:42;30.40;56.00
7970;DHT22;4030;52.362;9.206;2023-07-29T11:50:10;30.10;56.70
7970;DHT22;4030;52.362;9.206;2023-07-29T11:52:37;30.00;57.20
7970;DHT22;4030;52.362;9.206;2023-07-29T11:55:04;29.80;57.50
7970;DHT22;4030;52.362;9.206;2023-07-29T11:57:31;29.60;56.90
7970;DHT22;4030;52.362;9.206;2023-07-29T12:00:04;29.50;57.00
7970;DHT22;4030;52.362;9.206;2023-07-29T12:02:32;29.40;57.30
7970;DHT22;4030;52.362;9.206;2023-07-29T12:04:59;29.30;57.80
7970;DHT22;4030;52.362;9.206;2023-07-29T12:07:25;29.30;58.40
7970;DHT22;4030;52.362;9.206;2023-07-29T12:09:52;29.10;59.60
7970;DHT22;4030;52.362;9.206;2023-07-29T12:12:18;29.10;60.60
7970;DHT22;4030;52.362;9.206;2023-07-29T12:14:47;29.30;60.60
7970;DHT22;4030;52.362;9.206;2023-07-29T12:17:13;29.50;60.80
7970;DHT22;4030;52.362;9.206;2023-07-29T12:19:39;29.80;59.40
7970;DHT22;4030;52.362;9.206;2023-07-29T12:22:07;30.00;56.40
7970;DHT22;4030;52.362;9.206;2023-07-29T12:24:39;30.10;55.90
7970;DHT22;4030;52.362;9.206;2023-07-29T12:27:10;30.10;56.10
7970;DHT22;4030;52.362;9.206;2023-07-29T12:29:40;30.00;55.50
7970;DHT22;4030;52.362;9.206;2023-07-29T12:32:07;30.00;55.10
7970;DHT22;4030;52.362;9.206;2023-07-29T12:34:33;29.90;54.90
7970;DHT22;4030;52.362;9.206;2023-07-29T12:37:02;30.00;54.90
7970;DHT22;4030;52.362;9.206;2023-07-29T12:39:31;30.00;54.90
7970;DHT22;4030;52.362;9.206;2023-07-29T12:41:59;30.10;54.20
7970;DHT22;4030;52.362;9.206;2023-07-29T12:44:29;30.30;54.50
7970;DHT22;4030;52.362;9.206;2023-07-29T12:47:01;30.50;55.40
7970;DHT22;4030;52.362;9.206;2023-07-29T12:49:28;30.70;55.20
7970;DHT22;4030;52.362;9.206;2023-07-29T12:51:55;30.90;53.90
7970;DHT22;4030;52.362;9.206;2023-07-29T12:54:21;31.10;52.60
7970;DHT22;4030;52.362;9.206;2023-07-29T12:56:47;31.20;51.10
7970;DHT22;4030;52.362;9.206;2023-07-29T12:59:13;31.40;50.70
7970;DHT22;4030;52.362;9.206;2023-07-29T13:01:39;31.50;51.10
7970;DHT22;4030;52.362;9.206;2023-07-29T13:04:04;31.50;50.00
7970;DHT22;4030;52.362;9.206;2023-07-29T13:06:30;31.40;49.20
7970;DHT22;4030;52.362;9.206;2023-07-29T13:08:56;31.40;49.20
7970;DHT22;4030;52.362;9.206;2023-07-29T13:11:21;31.50;49.30
7970;DHT22;4030;52.362;9.206;2023-07-29T13:13:47;31.50;49.20
7970;DHT22;4030;52.362;9.206;2023-07-29T13:16:13;31.50;49.00
7970;DHT22;4030;52.362;9.206;2023-07-29T13:18:39;31.40;48.70
7970;DHT22;4030;52.362;9.206;2023-07-29T13:21:05;31.30;48.80
7970;DHT22;4030;52.362;9.206;2023-07-29T13:23:31;31.20;49.00
7970;DHT22;4030;52.362;9.206;2023-07-29T13:25:57;31.40;49.00
7970;DHT22;4030;52.362;9.206;2023-07-29T13:28:23;31.40;49.10
7970;DHT22;4030;52.362;9.206;2023-07-29T13:30:49;31.30;49.70
7970;DHT22;4030;52.362;9.206;2023-07-29T13:33:15;31.10;49.50
7970;DHT22;4030;52.362;9.206;2023-07-29T13:35:40;31.00;49.00
7970;DHT22;4030;52.362;9.206;2023-07-29T13:38:06;31.10;48.70
7970;DHT22;4030;52.362;9.206;2023-07-29T13:40:32;31.20;48.70
7970;DHT22;4030;52.362;9.206;2023-07-29T13:42:58;31.40;49.30
7970;DHT22;4030;52.362;9.206;2023-07-29T13:45:23;31.60;49.70
7970;DHT22;4030;52.362;9.206;2023-07-29T13:47:49;31.90;50.10
7970;DHT22;4030;52.362;9.206;2023-07-29T13:50:16;32.10;49.50
7970;DHT22;4030;52.362;9.206;2023-07-29T13:52:43;32.10;48.60
7970;DHT22;4030;52.362;9.206;2023-07-29T13:55:09;31.70;49.10
7970;DHT22;4030;52.362;9.206;2023-07-29T13:57:35;31.50;49.40
7970;DHT22;4030;52.362;9.206;2023-07-29T14:00:01;31.30;49.20
7970;DHT22;4030;52.362;9.206;2023-07-29T14:02:27;31.30;49.00
7970;DHT22;4030;52.362;9.206;2023-07-29T14:04:53;31.30;48.80
7970;DHT22;4030;52.362;9.206;2023-07-29T14:07:18;31.20;49.00
7970;DHT22;4030;52.362;9.206;2023-07-29T14:09:44;31.00;49.40
7970;DHT22;4030;52.362;9.206;2023-07-29T14:12:10;31.10;50.00
7970;DHT22;4030;52.362;9.206;2023-07-29T14:14:38;31.40;50.10
7970;DHT22;4030;52.362;9.206;2023-07-29T14:17:04;31.90;50.10
7970;DHT22;4030;52.362;9.206;2023-07-29T14:19:31;32.20;49.70
7970;DHT22;4030;52.362;9.206;2023-07-29T14:21:57;32.50;49.50
7970;DHT22;4030;52.362;9.206;2023-07-29T14:24:23;32.50;49.60
7970;DHT22;4030;52.362;9.206;2023-07-29T14:26:49;32.60;49.60
7970;DHT22;4030;52.362;9.206;2023-07-29T14:29:14;32.90;49.20
7970;DHT22;4030;52.362;9.206;2023-07-29T14:31:40;33.20;48.80
7970;DHT22;4030;52.362;9.206;2023-07-29T14:34:06;33.50;48.40
7970;DHT22;4030;52.362;9.206;2023-07-29T14:36:31;33.80;48.10
7970;DHT22;4030;52.362;9.206;2023-07-29T14:38:57;33.90;47.90
7970;DHT22;4030;52.362;9.206;2023-07-29T14:41:23;33.90;47.70
7970;DHT22;4030;52.362;9.206;2023-07-29T14:43:48;33.80;47.80
7970;DHT22;4030;52.362;9.206;2023-07-29T14:46:14;33.70;47.80
7970;DHT22;4030;52.362;9.206;2023-07-29T14:48:40;33.60;47.80
7970;DHT22;4030;52.362;9.206;2023-07-29T14:51:05;33.50;47.90
7970;DHT22;4030;52.362;9.206;2023-07-29T14:53:31;33.40;48.20
7970;DHT22;4030;52.362;9.206;2023-07-29T14:55:57;33.30;48.20
7970;DHT22;4030;52.362;9.206;2023-07-29T14:58:22;33.10;48.30
7970;DHT22;4030;52.362;9.206;2023-07-29T15:00:51;33.00;48.60
7970;DHT22;4030;52.362;9.206;2023-07-29T15:03:17;32.80;48.90
7970;DHT22;4030;52.362;9.206;2023-07-29T15:05:43;32.50;49.30
7970;DHT22;4030;52.362;9.206;2023-07-29T15:08:09;32.20;48.90
7970;DHT22;4030;52.362;9.206;2023-07-29T15:10:35;32.10;50.10
7970;DHT22;4030;52.362;9.206;2023-07-29T15:13:00;31.80;51.00
7970;DHT22;4030;52.362;9.206;2023-07-29T15:15:27;31.60;50.30
7970;DHT22;4030;52.362;9.206;2023-07-29T15:17:53;31.30;50.50
7970;DHT22;4030;52.362;9.206;2023-07-29T15:20:19;31.10;51.70
7970;DHT22;4030;52.362;9.206;2023-07-29T15:22:44;31.00;52.90
7970;DHT22;4030;52.362;9.206;2023-07-29T15:25:10;30.80;53.50
7970;DHT22;4030;52.362;9.206;2023-07-29T15:27:37;30.60;53.10
7970;DHT22;4030;52.362;9.206;2023-07-29T15:30:08;30.30;52.80
7970;DHT22;4030;52.362;9.206;2023-07-29T15:32:34;30.00;53.10
7970;DHT22;4030;52.362;9.206;2023-07-29T15:34:59;29.80;52.90
7970;DHT22;4030;52.362;9.206;2023-07-29T15:37:25;29.60;53.10
7970;DHT22;4030;52.362;9.206;2023-07-29T15:39:52;29.40;53.30
7970;DHT22;4030;52.362;9.206;2023-07-29T15:42:17;29.30;53.90
7970;DHT22;4030;52.362;9.206;2023-07-29T15:44:43;29.10;54.70
7970;DHT22;4030;52.362;9.206;2023-07-29T15:47:09;29.00;55.20
7970;DHT22;4030;52.362;9.206;2023-07-29T15:49:34;29.00;55.70
7970;DHT22;4030;52.362;9.206;2023-07-29T15:52:00;29.00;56.00
7970;DHT22;4030;52.362;9.206;2023-07-29T15:54:26;29.00;56.20
7970;DHT22;4030;52.362;9.206;2023-07-29T15:56:51;29.00;56.40
7970;DHT22;4030;52.362;9.206;2023-07-29T15:59:17;29.00;56.60
7970;DHT22;4030;52.362;9.206;2023-07-29T16:01:43;29.00;56.70
7970;DHT22;4030;52.362;9.206;2023-07-29T16:04:08;29.00;57.00
7970;DHT22;4030;52.362;9.206;2023-07-29T16:06:34;29.00;57.20
7970;DHT22;4030;52.362;9.206;2023-07-29T16:09:01;28.90;57.20